Airfield :







YOU CAN JOIN US ON...

 
LOGIN :

Register | Disclaimer

   EN    FR    IT 

 









Legend :    VFR   Marginal VFR   IFR   Intensive IFR   Very Intensive IFR
Visi :
Ceiling :
>= 8 km
>= 3000ft
5 to 8 km
1000 to 3000 ft
1500m to 5 km
500 to 1000 ft
800 to 1500m
200 to 500 ft
< 800m
< 200 ft
Symbols :   Thunderstorms  Fog  Heavy snow  Heavy precipitations  Wind > 20 kt






- Airport Elevation : 1442 ft
- IATA code : ZUM


CZUM - Churchill Falls

CURRENT METAR :
  • 220500Z AUTO 26004KT 9SM CLR M02/M02 A3020 RMK SLP253

EXPIRED METARs :
  • 220400Z AUTO 27004KT 9SM CLR M01/M02 A3020 RMK SLP252
  • 220300Z AUTO 28004KT 9SM CLR M00/M01 A3020 RMK SLP251

TAF TAF CZUM
Valid from the 22 at 02:00 until the 22 at 14:00 UTC


220140Z 2202/2214 VRB03KT P6SM FEW040
TEMPO 2202/2204 5SM BR
FM220400 VRB03KT 6SM BR SKC
TEMPO 2204/2211 2SM BR
PROB30 2204/2211 1/2SM FZFG BKN002
FM221100 VRB03KT P6SM FEW080 RMK FCST BASED ON AUTO OBS. NXT FCST BY 220800Z
CZQX FIR / North America



MET'MAP, your aeronautical weather chart ! - Copyright ORBIFLY December 2007 - Disclaimer

ORBIFLY MET'MAP TEAM :

Programming & Development : Alexandra Zaïnal
Original concept : Baudouin d'Aumeries
Technical & hardware support : Manuel Goepfert
Assistance : Marc-Olivier Méhu




SOURCES & CREDITS :

   NOAA